Time;durP1;ratioP1;P1;durP2;ratioP2;P2;SDS_P1;SDS_P2;PMS_P1;PMS_P2;Temp;Humidity;BMP_temperature;BMP_pressure;BME280_temperature;BME280_humidity;BME280_pressure;Samples;Min_cycle;Max_cycle;Signal;HPM_P1;HPM_P2
2022/05/25 00:00:05;;;;;;;6.70;3.60;;;;;;;11.72;87.41;100527.25;6129552;23;20454;-80
2022/05/25 00:02:31;;;;;;;7.72;3.60;;;;;;;11.73;87.97;100528.91;6134918;23;20028;-80
2022/05/25 00:04:58;;;;;;;6.90;3.65;;;;;;;11.74;87.43;100527.09;6135261;23;20076;-81
2022/05/25 00:07:25;;;;;;;5.20;3.50;;;;;;;11.68;87.86;100525.97;6133103;23;20073;-81
2022/05/25 00:09:52;;;;;;;4.63;3.50;;;;;;;11.66;88.02;100527.09;6128523;23;20467;-79
2022/05/25 00:12:20;;;;;;;6.75;3.83;;;;;;;11.61;88.35;100533.66;6130305;23;20022;-84
2022/05/25 00:14:48;;;;;;;6.32;3.83;;;;;;;11.60;88.79;100534.66;6132072;23;20025;-80
2022/05/25 00:17:14;;;;;;;5.93;3.58;;;;;;;11.55;88.82;100539.56;6131459;23;20053;-80
2022/05/25 00:22:26;;;;;;;5.05;3.75;;;;;;;11.45;89.50;100541.50;6134788;23;20037;-81
2022/05/25 00:24:56;;;;;;;5.13;3.47;;;;;;;11.39;89.40;100547.41;6131431;23;20053;-80
2022/05/25 00:27:23;;;;;;;4.75;3.65;;;;;;;11.28;89.43;100539.88;6131061;23;20026;-80
2022/05/25 00:29:51;;;;;;;4.70;4.07;;;;;;;11.24;90.28;100538.56;6128626;23;20105;-79
2022/05/25 00:32:17;;;;;;;5.30;4.18;;;;;;;11.19;91.28;100546.09;6130375;23;20466;-80
2022/05/25 00:34:44;;;;;;;6.57;3.88;;;;;;;11.22;90.54;100546.59;6131083;23;20100;-83
2022/05/25 00:37:10;;;;;;;7.18;4.10;;;;;;;11.22;90.77;100551.84;6131486;23;20077;-81
2022/05/25 00:39:40;;;;;;;4.60;4.00;;;;;;;11.21;90.54;100546.75;6130354;23;20108;-80
2022/05/25 00:42:07;;;;;;;8.05;5.20;;;;;;;11.22;90.37;100556.25;6130341;23;20501;-81
2022/05/25 00:44:34;;;;;;;7.43;4.20;;;;;;;11.22;90.12;100546.59;6130257;23;20026;-80
2022/05/25 00:47:02;;;;;;;5.72;4.03;;;;;;;11.18;90.30;100555.75;6131192;23;20025;-82
2022/05/25 00:49:31;;;;;;;6.15;4.30;;;;;;;11.11;90.62;100548.69;6131174;23;20082;-82
2022/05/25 00:52:03;;;;;;;5.50;4.03;;;;;;;11.09;90.96;100569.00;6133856;23;20037;-80
2022/05/25 00:54:33;;;;;;;6.20;3.97;;;;;;;11.09;91.52;100571.59;6134173;23;20026;-81
2022/05/25 00:57:10;;;;;;;5.10;4.60;;;;;;;11.03;91.13;100561.78;6133087;23;20056;-80
2022/05/25 00:59:47;;;;;;;5.75;3.90;;;;;;;11.01;91.95;100574.19;6130627;23;20105;-81
2022/05/25 01:02:16;;;;;;;10.25;4.18;;;;;;;10.93;91.67;100577.63;6130286;23;20098;-79
2022/05/25 01:04:42;;;;;;;8.88;4.10;;;;;;;10.91;91.83;100582.19;6127513;23;20022;-84
2022/05/25 01:07:25;;;;;;;4.95;4.13;;;;;;;10.90;91.68;100581.38;6131345;23;20057;-79
2022/05/25 01:10:03;;;;;;;5.90;3.90;;;;;;;10.84;91.56;100576.81;6130956;23;20414;-80
2022/05/25 01:12:45;;;;;;;5.82;4.05;;;;;;;10.77;91.69;100578.41;6131860;23;20257;-80
2022/05/25 01:15:18;;;;;;;8.70;4.10;;;;;;;10.67;91.73;100576.88;6131361;23;20056;-82
2022/05/25 01:18:01;;;;;;;6.30;4.03;;;;;;;10.59;92.35;100580.28;6132350;23;20412;-81
2022/05/25 01:20:34;;;;;;;6.30;4.05;;;;;;;10.55;92.46;100586.81;6130187;23;20026;-80
2022/05/25 01:23:47;;;;;;;6.32;4.20;;;;;;;10.48;92.66;100588.41;6129432;23;20073;-81
2022/05/25 01:26:35;;;;;;;5.50;3.90;;;;;;;10.37;93.31;100591.31;6129118;23;20075;-80
2022/05/25 01:29:13;;;;;;;9.95;4.28;;;;;;;10.33;93.15;100595.22;6127430;23;20089;-80
2022/05/25 01:31:48;;;;;;;6.90;4.53;;;;;;;10.26;93.69;100593.22;6129068;23;20022;-80
2022/05/25 01:34:22;;;;;;;7.07;4.40;;;;;;;10.16;94.04;100595.09;6129217;23;20101;-80
2022/05/25 01:36:56;;;;;;;4.70;3.90;;;;;;;10.10;94.70;100600.91;6128832;23;20089;-81
2022/05/25 01:39:27;;;;;;;8.02;4.07;;;;;;;10.09;95.17;100607.13;6127969;23;20024;-80
2022/05/25 01:42:00;;;;;;;5.63;4.60;;;;;;;10.06;94.86;100596.97;6128991;23;20053;-80
2022/05/25 01:44:28;;;;;;;;;;;;;;;10.10;95.24;100594.88;6131235;23;20049;-80
2022/05/25 01:47:02;;;;;;;6.60;4.88;;;;;;;10.10;94.82;100594.88;6132357;23;19956;-78
2022/05/25 01:49:34;;;;;;;6.72;4.60;;;;;;;10.10;95.15;100593.06;6129172;23;20411;-77
2022/05/25 01:52:05;;;;;;;6.90;4.60;;;;;;;10.08;95.34;100592.41;6128598;23;20105;-77
2022/05/25 01:54:37;;;;;;;6.22;4.90;;;;;;;10.18;95.70;100608.81;6129724;23;20049;-80
2022/05/25 01:57:07;;;;;;;6.93;4.68;;;;;;;10.18;95.33;100608.81;6132232;23;20056;-80
2022/05/25 01:59:34;;;;;;;6.68;4.88;;;;;;;10.15;95.85;100598.66;6132767;23;20022;-80
2022/05/25 02:04:51;;;;;;;5.57;4.80;;;;;;;10.07;95.56;100601.22;6135315;23;20049;-81
2022/05/25 02:07:27;;;;;;;7.38;4.88;;;;;;;10.11;95.76;100610.41;6137785;23;20113;-82
2022/05/25 02:10:17;;;;;;;6.30;4.70;;;;;;;10.12;95.42;100609.44;6136147;23;20046;-80
2022/05/25 02:12:59;;;;;;;6.20;4.80;;;;;;;10.08;95.21;100607.28;6133060;23;20414;-80
2022/05/25 02:15:34;;;;;;;7.15;4.70;;;;;;;10.07;95.72;100616.91;6131764;23;20073;-79
2022/05/25 02:18:09;;;;;;;9.35;4.85;;;;;;;10.05;95.41;100603.19;6133093;23;20034;-80
2022/05/25 02:20:44;;;;;;;6.65;4.80;;;;;;;10.03;95.54;100609.53;6131597;23;20060;-80
2022/05/25 02:23:19;;;;;;;6.03;4.80;;;;;;;9.97;95.16;100617.00;6128747;23;20049;-81
2022/05/25 02:25:51;;;;;;;8.57;4.35;;;;;;;10.02;94.88;100628.81;6128618;23;20436;-79
2022/05/25 02:28:24;;;;;;;5.65;4.28;;;;;;;10.00;94.31;100623.72;6126895;23;20022;-80
2022/05/25 02:30:59;;;;;;;6.45;4.45;;;;;;;9.93;94.51;100622.69;6134684;23;20041;-80
2022/05/25 02:33:31;;;;;;;7.85;4.80;;;;;;;9.88;94.37;100622.34;6134099;23;20101;-80
2022/05/25 02:35:59;;;;;;;6.53;4.30;;;;;;;9.88;94.69;100627.56;6134610;23;20114;-80
2022/05/25 02:38:26;;;;;;;6.70;4.63;;;;;;;9.88;94.92;100627.56;6130687;23;20030;-79
2022/05/25 02:41:03;;;;;;;6.95;4.38;;;;;;;9.88;95.52;100625.78;6132410;23;20109;-83
2022/05/25 02:43:30;;;;;;;5.95;4.18;;;;;;;9.81;95.40;100619.50;6132080;23;20033;-80
2022/05/25 02:45:58;;;;;;;7.18;4.50;;;;;;;9.89;95.19;100626.59;6131958;23;20049;-80
2022/05/25 02:48:24;;;;;;;7.55;4.55;;;;;;;9.86;94.83;100626.91;6131691;23;20042;-80
2022/05/25 02:50:52;;;;;;;10.23;4.53;;;;;;;9.89;94.68;100629.22;6133489;23;20093;-80
2022/05/25 02:53:20;;;;;;;7.47;4.57;;;;;;;9.91;94.61;100629.88;6133369;23;20050;-80
2022/05/25 02:55:46;;;;;;;6.45;4.72;;;;;;;9.88;95.00;100630.19;6131915;23;20026;-80
2022/05/25 02:58:13;;;;;;;6.70;4.63;;;;;;;9.98;94.16;100633.50;6131711;23;20022;-81
2022/05/25 03:00:39;;;;;;;11.55;5.10;;;;;;;9.94;93.90;100627.75;6133411;23;20053;-81
2022/05/25 03:03:06;;;;;;;11.98;4.78;;;;;;;10.04;93.96;100638.13;6132994;23;20064;-80
2022/05/25 03:05:33;;;;;;;11.88;5.78;;;;;;;10.10;93.48;100637.53;6132046;23;20033;-81
2022/05/25 03:08:01;;;;;;;8.90;5.50;;;;;;;10.08;93.36;100639.47;6130354;23;20058;-77
2022/05/25 03:10:28;;;;;;;8.70;5.13;;;;;;;10.22;93.00;100649.41;6126479;23;20033;-78
2022/05/25 03:12:54;;;;;;;8.30;5.45;;;;;;;10.29;92.78;100647.84;6128627;23;20097;-79
2022/05/25 03:15:21;;;;;;;7.80;5.03;;;;;;;10.35;91.71;100645.59;6130978;23;20191;-82
2022/05/25 03:17:48;;;;;;;11.70;5.78;;;;;;;10.46;91.50;100647.91;6128844;23;20033;-77
2022/05/25 03:20:16;;;;;;;9.82;5.60;;;;;;;10.44;91.79;100655.91;6126942;23;20602;-78
2022/05/25 03:22:44;;;;;;;8.95;5.82;;;;;;;10.44;91.66;100650.69;6127067;23;20105;-79
2022/05/25 03:25:12;;;;;;;7.63;5.10;;;;;;;10.46;92.09;100653.97;6127400;23;20088;-78
2022/05/25 03:27:39;;;;;;;9.20;5.18;;;;;;;10.50;91.62;100657.09;6127627;23;20105;-79
2022/05/25 03:30:08;;;;;;;11.02;5.38;;;;;;;10.49;91.69;100660.69;6126912;23;20089;-79
2022/05/25 03:32:35;;;;;;;7.45;4.80;;;;;;;10.56;91.57;100669.56;6127474;23;20089;-79
2022/05/25 03:35:02;;;;;;;8.13;5.30;;;;;;;10.53;91.27;100670.69;6128308;23;20613;-82
2022/05/25 03:37:29;;;;;;;9.63;5.20;;;;;;;10.55;90.71;100662.69;6130718;23;20026;-80
2022/05/25 03:39:56;;;;;;;9.27;5.10;;;;;;;10.51;91.00;100667.41;6130222;23;20022;-79
2022/05/25 03:42:24;;;;;;;11.20;4.97;;;;;;;10.46;91.54;100671.47;6130440;23;20053;-80
2022/05/25 03:44:51;;;;;;;8.82;5.00;;;;;;;10.37;91.75;100678.47;6130481;23;20053;-80
2022/05/25 03:47:18;;;;;;;7.03;4.72;;;;;;;10.44;91.44;100670.78;6130706;23;20026;-80
2022/05/25 03:49:44;;;;;;;7.82;5.15;;;;;;;10.38;91.44;100672.25;6129820;23;20060;-80
2022/05/25 03:52:11;;;;;;;8.27;5.25;;;;;;;10.37;91.56;100670.59;6130236;23;20498;-81
2022/05/25 03:54:38;;;;;;;7.82;5.15;;;;;;;10.34;91.75;100680.56;6130287;23;20057;-79
2022/05/25 03:57:05;;;;;;;10.98;5.10;;;;;;;10.39;91.47;100689.59;6130083;23;20045;-80
2022/05/25 03:59:33;;;;;;;10.98;5.25;;;;;;;10.48;91.42;100687.81;6129258;23;20076;-80
2022/05/25 04:02:00;;;;;;;9.27;5.03;;;;;;;10.66;90.62;100691.22;6131375;23;20056;-80
2022/05/25 04:04:26;;;;;;;8.48;4.80;;;;;;;10.83;89.05;100694.75;6134330;23;20065;-80
2022/05/25 04:06:53;;;;;;;11.23;4.88;;;;;;;10.69;89.46;100700.56;6135280;23;20389;-78
2022/05/25 04:09:19;;;;;;;8.50;4.97;;;;;;;11.03;88.61;100704.00;6133083;23;20093;-80
2022/05/25 04:11:46;;;;;;;10.05;5.13;;;;;;;11.58;86.38;100704.34;6132594;23;20033;-83
2022/05/25 04:14:15;;;;;;;8.45;4.43;;;;;;;12.16;83.05;100707.88;6132490;23;20033;-79
2022/05/25 04:16:43;;;;;;;8.80;4.47;;;;;;;12.30;82.42;100705.38;6132897;23;20474;-82
2022/05/25 04:19:10;;;;;;;7.20;5.05;;;;;;;12.50;81.74;100715.53;6131559;23;20078;-81
2022/05/25 04:21:36;;;;;;;9.23;4.68;;;;;;;12.84;79.92;100707.41;6131844;23;20025;-82
2022/05/25 04:24:03;;;;;;;12.15;6.13;;;;;;;13.08;79.20;100706.53;6132585;23;20065;-82
2022/05/25 04:26:31;;;;;;;11.25;4.80;;;;;;;13.73;75.81;100714.06;6132299;23;20057;-82
2022/05/25 04:28:57;;;;;;;11.20;5.10;;;;;;;14.22;73.51;100712.72;6133730;23;20042;-84
2022/05/25 04:31:25;;;;;;;10.95;4.80;;;;;;;14.18;73.86;100714.06;6136354;23;20056;-82
2022/05/25 04:33:53;;;;;;;7.07;4.30;;;;;;;14.04;74.26;100716.69;6135496;23;20029;-83
2022/05/25 04:36:20;;;;;;;8.45;4.55;;;;;;;14.18;73.81;100711.44;6136008;23;20026;-81
2022/05/25 04:38:47;;;;;;;10.07;4.85;;;;;;;13.96;74.24;100720.19;6132981;23;20535;-80
2022/05/25 04:41:14;;;;;;;7.68;4.05;;;;;;;13.81;74.77;100727.19;6135362;23;20022;-81
2022/05/25 04:43:40;;;;;;;8.02;4.60;;;;;;;13.89;75.18;100719.25;6138638;23;20026;-80
2022/05/25 04:46:08;;;;;;;7.10;4.50;;;;;;;14.07;73.62;100722.41;6138313;23;20029;-78
2022/05/25 04:48:35;;;;;;;6.15;3.95;;;;;;;13.77;74.58;100725.88;6139280;23;20049;-78
2022/05/25 04:51:04;;;;;;;7.18;4.40;;;;;;;13.81;75.73;100738.53;6134723;23;20275;-77
2022/05/25 04:53:32;;;;;;;7.47;4.40;;;;;;;14.25;73.85;100732.59;6128862;23;20100;-79
2022/05/25 04:58:45;;;;;;;7.97;5.07;;;;;;;14.63;72.81;100730.81;6127364;23;20105;-79
2022/05/25 05:01:14;;;;;;;6.95;4.18;;;;;;;15.04;71.30;100733.03;6127732;23;20529;-77
2022/05/25 05:03:41;;;;;;;8.70;4.38;;;;;;;15.38;69.99;100748.25;6126356;23;20028;-82
2022/05/25 05:06:11;;;;;;;10.70;4.50;;;;;;;15.52;68.79;100742.13;6127770;23;20339;-79
2022/05/25 05:08:38;;;;;;;8.15;4.50;;;;;;;15.60;68.57;100744.66;6127399;23;20106;-79
2022/05/25 05:11:07;;;;;;;6.93;4.40;;;;;;;15.51;68.66;100759.78;6123938;23;20029;-81
2022/05/25 05:13:33;;;;;;;7.95;4.70;;;;;;;15.55;68.44;100753.13;6124346;23;20064;-81
2022/05/25 05:16:05;;;;;;;10.10;4.93;;;;;;;15.47;69.04;100755.88;6124459;23;20022;-79
2022/05/25 05:18:31;;;;;;;9.68;5.05;;;;;;;16.19;67.30;100758.47;6123963;23;20362;-78
2022/05/25 05:20:58;;;;;;;7.45;4.13;;;;;;;17.55;62.20;100754.44;6126180;23;20113;-82
2022/05/25 05:23:26;;;;;;;11.45;4.15;;;;;;;18.37;59.04;100758.72;6131087;23;20057;-82
2022/05/25 05:25:52;;;;;;;8.52;4.53;;;;;;;19.22;56.56;100763.09;6131208;23;20064;-80
2022/05/25 05:28:20;;;;;;;9.27;4.18;;;;;;;19.47;54.69;100765.81;6127771;23;20054;-79
2022/05/25 05:30:50;;;;;;;8.18;4.22;;;;;;;19.60;54.61;100759.69;6124812;23;20022;-80
2022/05/25 05:33:17;;;;;;;9.23;5.53;;;;;;;20.02;53.14;100758.19;6133744;23;20064;-85
2022/05/25 05:35:45;;;;;;;7.88;4.65;;;;;;;20.19;52.60;100757.47;6132733;23;20100;-80
2022/05/25 05:38:16;;;;;;;9.05;4.40;;;;;;;20.77;51.10;100765.19;6131672;23;20021;-79
2022/05/25 05:40:45;;;;;;;7.82;4.10;;;;;;;21.25;50.20;100766.34;6132473;23;20077;-81
2022/05/25 05:43:12;;;;;;;6.75;4.18;;;;;;;20.99;49.16;100762.91;6131949;23;20044;-81
2022/05/25 05:45:43;;;;;;;8.15;4.43;;;;;;;21.00;48.80;100756.53;6132060;23;20534;-79
2022/05/25 05:48:14;;;;;;;6.63;4.35;;;;;;;20.74;49.45;100768.28;6131193;23;20068;-81
2022/05/25 05:50:41;;;;;;;8.75;4.72;;;;;;;20.55;49.63;100769.28;6131478;23;20018;-80
2022/05/25 05:53:11;;;;;;;10.73;4.43;;;;;;;20.33;50.41;100768.78;6132722;23;20022;-80
2022/05/25 05:55:40;;;;;;;7.93;4.30;;;;;;;21.05;48.97;100775.31;6132562;23;20470;-82
2022/05/25 05:58:08;;;;;;;9.05;4.55;;;;;;;20.83;48.96;100774.91;6131899;23;20029;-81
2022/05/25 06:00:34;;;;;;;10.20;4.00;;;;;;;21.25;48.32;100769.00;6129237;23;20061;-78
2022/05/25 06:03:01;;;;;;;7.15;3.88;;;;;;;20.75;47.85;100764.59;6132484;23;20022;-79
2022/05/25 06:05:28;;;;;;;8.82;3.88;;;;;;;21.25;48.33;100769.81;6133781;23;20022;-81
2022/05/25 06:07:55;;;;;;;7.65;4.00;;;;;;;21.80;45.72;100767.84;6137054;23;20045;-79
2022/05/25 06:10:22;;;;;;;9.27;4.90;;;;;;;22.41;44.35;100779.25;6138485;23;20025;-81
2022/05/25 06:12:49;;;;;;;8.63;3.80;;;;;;;22.33;44.58;100782.25;6141931;23;20026;-80
2022/05/25 06:20:49;;;;;;;6.05;3.45;;;;;;;21.42;46.99;100781.47;6140000;23;20049;-80
2022/05/25 06:23:15;;;;;;;7.28;3.60;;;;;;;21.39;46.73;100789.91;6141744;23;20021;-80
2022/05/25 06:25:45;;;;;;;7.38;3.40;;;;;;;22.12;45.44;100791.63;6139982;23;20057;-81
2022/05/25 06:28:12;;;;;;;6.28;3.05;;;;;;;22.76;43.47;100798.75;6138672;23;20105;-81
2022/05/25 06:30:40;;;;;;;5.07;3.60;;;;;;;22.57;43.49;100783.94;6139809;23;20064;-83
2022/05/25 06:33:07;;;;;;;6.90;3.33;;;;;;;23.08;42.89;100788.56;6139559;23;20080;-83
2022/05/25 06:35:35;;;;;;;5.18;3.05;;;;;;;22.10;44.59;100783.84;6139229;23;20025;-82
2022/05/25 06:38:02;;;;;;;8.70;3.40;;;;;;;22.04;43.29;100786.63;6138998;23;20081;-82
2022/05/25 06:40:29;;;;;;;7.05;2.85;;;;;;;22.30;44.10;100791.53;6139830;23;20026;-82
2022/05/25 06:42:56;;;;;;;5.22;2.67;;;;;;;23.47;40.46;100794.97;6140472;23;20032;-83
2022/05/25 06:45:23;;;;;;;8.07;3.13;;;;;;;23.11;41.38;100800.66;6139492;23;20142;-83
2022/05/25 06:47:51;;;;;;;8.25;2.80;;;;;;;22.63;41.22;100790.19;6139155;23;20025;-81
2022/05/25 06:50:18;;;;;;;7.75;2.70;;;;;;;23.19;41.12;100797.59;6137940;23;20092;-82
2022/05/25 06:52:45;;;;;;;5.15;2.53;;;;;;;23.15;41.32;100799.13;6138854;23;20087;-83
2022/05/25 06:55:12;;;;;;;5.03;2.65;;;;;;;21.91;42.06;100800.09;6136303;23;20032;-82
2022/05/25 06:57:40;;;;;;;7.13;2.50;;;;;;;22.17;41.91;100799.75;6138055;23;20486;-82
2022/05/25 07:00:08;;;;;;;5.18;2.88;;;;;;;22.42;42.85;100799.56;6136502;23;20078;-82
2022/05/25 07:02:35;;;;;;;3.03;2.05;;;;;;;23.16;40.13;100795.38;6135141;23;20026;-82
2022/05/25 07:05:03;;;;;;;4.43;2.08;;;;;;;23.04;40.03;100802.63;6134481;23;20475;-82
2022/05/25 07:07:31;;;;;;;2.85;1.80;;;;;;;22.56;40.41;100802.81;6135210;23;20070;-82
2022/05/25 07:09:57;;;;;;;3.97;1.75;;;;;;;22.75;39.89;100804.31;6134035;23;20026;-82
2022/05/25 07:12:31;;;;;;;2.78;1.85;;;;;;;22.65;40.65;100802.25;6135118;23;20049;-82
2022/05/25 07:14:58;;;;;;;7.20;2.20;;;;;;;23.00;39.74;100807.59;6135944;23;20021;-82
2022/05/25 07:17:25;;;;;;;7.60;2.15;;;;;;;22.82;39.85;100807.72;6135909;23;20046;-82
2022/05/25 07:19:52;;;;;;;5.07;2.17;;;;;;;22.74;39.76;100811.50;6135716;23;20054;-83
2022/05/25 07:22:20;;;;;;;4.97;2.38;;;;;;;22.67;40.42;100812.69;6136667;23;20026;-83
2022/05/25 07:24:47;;;;;;;3.22;1.80;;;;;;;22.92;38.81;100818.63;6137357;23;20049;-82
2022/05/25 07:27:13;;;;;;;4.93;2.13;;;;;;;23.65;38.55;100811.88;6136649;23;20367;-83
2022/05/25 07:29:41;;;;;;;3.85;1.95;;;;;;;24.37;37.06;100814.84;6134543;23;20006;-82
2022/05/25 07:32:13;;;;;;;3.63;1.50;;;;;;;23.63;37.18;100819.34;6137360;23;20491;-82
2022/05/25 07:34:46;;;;;;;7.20;2.65;;;;;;;23.03;38.38;100822.34;6135868;23;20057;-82
2022/05/25 07:37:16;;;;;;;4.13;1.95;;;;;;;23.50;38.26;100818.53;6137167;23;20066;-81
2022/05/25 07:39:48;;;;;;;5.47;2.03;;;;;;;22.97;37.63;100810.75;6135993;23;20069;-81
2022/05/25 07:42:17;;;;;;;3.28;1.83;;;;;;;21.57;38.70;100814.88;6136201;23;20022;-82
2022/05/25 07:44:47;;;;;;;2.17;1.38;;;;;;;22.87;38.74;100807.84;6135269;23;20033;-81
2022/05/25 07:47:14;;;;;;;4.18;1.30;;;;;;;22.37;37.73;100818.09;6135525;23;20018;-82
2022/05/25 07:49:41;;;;;;;3.17;1.77;;;;;;;22.28;38.46;100795.47;6136462;23;20025;-80
2022/05/25 07:52:08;;;;;;;5.32;2.05;;;;;;;22.23;37.72;100824.66;6136015;23;20081;-81
2022/05/25 07:54:35;;;;;;;6.00;2.10;;;;;;;22.32;39.99;100823.28;6135512;23;20021;-82
2022/05/25 07:57:03;;;;;;;3.33;1.48;;;;;;;22.76;38.47;100819.28;6126807;23;20459;-82
2022/05/25 07:59:29;;;;;;;2.53;1.65;;;;;;;23.05;37.44;100823.72;6133288;23;20021;-82
2022/05/25 08:07:31;;;;;;;3.42;1.90;;;;;;;22.43;37.70;100822.50;6137563;23;20028;-81
2022/05/25 08:10:04;;;;;;;5.15;1.52;;;;;;;23.31;37.96;100811.72;6136573;23;20058;-81
2022/05/25 08:12:32;;;;;;;5.18;2.03;;;;;;;23.83;37.37;100820.53;6135979;23;20018;-82
2022/05/25 08:15:00;;;;;;;4.65;1.52;;;;;;;23.16;37.49;100800.72;6134389;23;20025;-80
2022/05/25 08:17:27;;;;;;;5.32;1.90;;;;;;;23.06;36.74;100813.88;6134395;23;20451;-82
2022/05/25 08:19:54;;;;;;;3.72;1.80;;;;;;;22.34;37.12;100805.22;6136072;23;20045;-83
2022/05/25 08:22:21;;;;;;;5.55;2.13;;;;;;;22.72;36.98;100826.94;6136558;23;20022;-82
2022/05/25 08:24:48;;;;;;;3.47;1.08;;;;;;;22.78;37.62;100818.03;6134432;23;20188;-83
2022/05/25 08:27:15;;;;;;;6.40;2.55;;;;;;;22.67;37.89;100824.19;6133401;23;20117;-84
2022/05/25 08:29:44;;;;;;;7.25;1.92;;;;;;;22.26;37.90;100829.53;6135857;23;20026;-82
2022/05/25 08:32:11;;;;;;;6.50;1.83;;;;;;;22.69;37.74;100824.72;6139394;23;20037;-85
2022/05/25 08:34:38;;;;;;;4.68;1.85;;;;;;;21.97;38.53;100820.50;6135905;23;20030;-83
2022/05/25 08:37:07;;;;;;;3.63;1.55;;;;;;;22.61;39.22;100825.09;6135367;23;20056;-83
2022/05/25 08:39:34;;;;;;;4.13;1.88;;;;;;;22.37;38.63;100821.56;6136180;23;20057;-82
2022/05/25 08:42:06;;;;;;;5.97;1.52;;;;;;;21.83;38.45;100814.53;6136857;23;20033;-81
2022/05/25 08:44:35;;;;;;;3.72;1.25;;;;;;;22.90;36.75;100819.91;6134784;23;20045;-84
2022/05/25 08:47:05;;;;;;;4.25;2.03;;;;;;;22.30;37.42;100801.38;6137092;23;20032;-83
2022/05/25 08:49:34;;;;;;;4.05;1.75;;;;;;;22.18;36.87;100810.19;6135036;23;20081;-81
2022/05/25 08:52:04;;;;;;;4.32;1.45;;;;;;;22.88;36.75;100798.78;6134705;23;20014;-81
2022/05/25 08:54:35;;;;;;;5.28;1.58;;;;;;;22.87;34.02;100809.69;6134592;23;20025;-80
2022/05/25 08:57:12;;;;;;;2.63;1.40;;;;;;;22.58;35.83;100816.75;6134467;23;20026;-81
2022/05/25 08:59:43;;;;;;;2.88;1.40;;;;;;;22.35;37.50;100828.16;6133888;23;20025;-82
2022/05/25 09:02:30;;;;;;;5.55;1.20;;;;;;;22.37;36.14;100818.91;6133178;23;20022;-82
2022/05/25 09:05:16;;;;;;;3.67;1.42;;;;;;;22.20;39.65;100817.16;6133988;23;20046;-82
2022/05/25 09:07:51;;;;;;;4.82;1.40;;;;;;;21.76;37.97;100813.81;6136116;23;20463;-81
2022/05/25 09:10:19;;;;;;;3.47;1.55;;;;;;;21.33;38.95;100808.59;6135808;23;20025;-81
2022/05/25 09:12:50;;;;;;;6.30;1.90;;;;;;;22.07;37.63;100832.28;6134636;23;20026;-81
2022/05/25 09:15:22;;;;;;;9.85;2.10;;;;;;;21.88;37.05;100821.84;6138499;23;20033;-80
2022/05/25 09:17:55;;;;;;;1.20;1.08;;;;;;;21.92;36.36;100823.03;6136585;23;20022;-81
2022/05/25 09:20:26;;;;;;;5.38;1.50;;;;;;;22.35;36.95;100825.50;6136548;23;20041;-83
2022/05/25 09:22:54;;;;;;;5.68;1.67;;;;;;;21.43;38.11;100825.69;6137177;23;20497;-80
2022/05/25 09:25:21;;;;;;;11.95;2.03;;;;;;;21.67;37.77;100823.97;6135909;23;20076;-82
2022/05/25 09:27:56;;;;;;;4.22;1.50;;;;;;;21.81;36.12;100819.28;6133155;23;20085;-80
2022/05/25 09:30:23;;;;;;;3.83;1.23;;;;;;;22.21;36.99;100827.56;6129433;23;20048;-82
2022/05/25 09:32:57;;;;;;;4.82;1.92;;;;;;;22.53;37.09;100828.09;6133296;23;20037;-82
2022/05/25 09:35:29;;;;;;;4.97;1.10;;;;;;;22.79;34.50;100819.66;6133490;23;20367;-83
2022/05/25 09:37:58;;;;;;;3.30;1.38;;;;;;;22.95;36.22;100822.69;6135499;23;20037;-82
2022/05/25 09:40:31;;;;;;;6.43;1.63;;;;;;;22.51;37.67;100823.00;6134994;23;20053;-80
2022/05/25 09:42:58;;;;;;;8.70;1.73;;;;;;;22.26;38.21;100833.00;6139338;23;20033;-81
2022/05/25 09:45:30;;;;;;;6.90;2.08;;;;;;;21.66;39.02;100825.03;6133222;23;20037;-81
2022/05/25 09:47:58;;;;;;;7.50;1.85;;;;;;;21.08;39.34;100822.78;6132737;23;20084;-82
2022/05/25 09:50:32;;;;;;;8.15;2.17;;;;;;;21.52;38.53;100821.69;6135856;23;20113;-82
2022/05/25 09:53:04;;;;;;;2.80;1.58;;;;;;;20.69;39.36;100823.97;6135167;23;20049;-81
2022/05/25 09:55:35;;;;;;;6.18;1.70;;;;;;;20.83;38.95;100825.44;6129555;23;20022;-82
2022/05/25 09:58:06;;;;;;;4.43;1.20;;;;;;;20.20;39.26;100838.81;6131159;23;20415;-81
2022/05/25 10:00:44;;;;;;;2.10;1.33;;;;;;;19.68;40.03;100809.88;6129058;23;20049;-80
2022/05/25 10:03:23;;;;;;;3.17;1.42;;;;;;;20.31;40.86;100842.63;6130642;23;20060;-81
2022/05/25 10:05:56;;;;;;;4.35;1.20;;;;;;;20.77;40.59;100826.34;6128708;23;20092;-81
2022/05/25 10:08:36;;;;;;;5.60;1.58;;;;;;;21.03;39.70;100804.00;6127490;23;20034;-82
2022/05/25 10:11:27;;;;;;;6.72;2.13;;;;;;;21.31;38.98;100834.63;6129722;23;20022;-80
2022/05/25 10:13:55;;;;;;;2.55;0.95;;;;;;;21.95;36.99;100818.06;6130540;23;20026;-80
2022/05/25 10:16:26;;;;;;;2.35;1.10;;;;;;;21.70;36.97;100820.06;6130055;23;20077;-80
2022/05/25 10:18:55;;;;;;;3.47;1.55;;;;;;;20.80;37.38;100827.72;6127164;23;20033;-81
2022/05/25 10:21:28;;;;;;;2.70;2.15;;;;;;;20.73;39.72;100803.88;6129512;23;20029;-81
2022/05/25 10:23:57;;;;;;;2.20;1.40;;;;;;;21.03;38.70;100825.28;6130112;23;20054;-82
2022/05/25 10:26:38;;;;;;;6.63;1.77;;;;;;;21.25;36.40;100822.22;6131933;23;20029;-83
2022/05/25 10:29:08;;;;;;;2.50;1.55;;;;;;;21.38;36.50;100822.88;6132140;23;20030;-80
2022/05/25 10:37:23;;;;;;;1.92;1.27;;;;;;;22.08;35.07;100823.25;6127931;23;20060;-80
2022/05/25 10:40:01;;;;;;;4.45;1.67;;;;;;;22.00;34.33;100828.03;6128141;23;20029;-81
2022/05/25 10:42:32;;;;;;;3.05;1.48;;;;;;;21.21;36.20;100821.84;6128186;23;20101;-81
2022/05/25 10:45:06;;;;;;;6.47;1.50;;;;;;;21.16;35.58;100821.69;6128504;23;20030;-81
2022/05/25 10:47:46;;;;;;;5.90;1.50;;;;;;;21.68;35.12;100808.81;6128588;23;20030;-80
2022/05/25 10:50:21;;;;;;;2.17;0.88;;;;;;;21.25;36.24;100815.06;6128976;23;20042;-80
2022/05/25 10:52:52;;;;;;;3.42;1.20;;;;;;;20.72;37.39;100820.88;6130686;23;20026;-82
2022/05/25 10:55:22;;;;;;;4.53;1.50;;;;;;;20.98;37.67;100811.00;6128709;23;20643;-81
2022/05/25 10:58:16;;;;;;;2.50;1.30;;;;;;;21.11;38.32;100813.53;6131592;23;20720;-82
2022/05/25 11:00:58;;;;;;;2.65;1.63;;;;;;;21.35;38.44;100810.00;6131392;23;20136;-83
2022/05/25 11:03:56;;;;;;;5.45;1.88;;;;;;;21.26;39.27;100816.69;6131602;23;20030;-82
2022/05/25 11:06:38;;;;;;;2.33;1.55;;;;;;;21.63;39.19;100819.31;6132937;23;20057;-83
2022/05/25 11:09:22;;;;;;;2.58;1.83;;;;;;;21.55;38.15;100814.28;6131792;23;20471;-81
2022/05/25 11:11:55;;;;;;;6.68;1.50;;;;;;;21.79;37.97;100824.00;6132820;23;20021;-81
2022/05/25 11:14:45;;;;;;;3.60;1.73;;;;;;;21.74;37.35;100826.56;6131349;23;20081;-81
2022/05/25 11:17:27;;;;;;;3.33;1.23;;;;;;;21.77;36.80;100828.75;6129099;23;20030;-84
2022/05/25 11:20:11;;;;;;;4.82;1.80;;;;;;;21.33;38.43;100830.72;6134252;23;20084;-82
2022/05/25 11:22:48;;;;;;;4.90;2.10;;;;;;;21.45;36.99;100818.28;6131706;23;20049;-80
2022/05/25 11:25:29;;;;;;;4.45;1.55;;;;;;;21.84;37.53;100826.81;6132778;23;20089;-80
2022/05/25 11:28:15;;;;;;;4.50;2.17;;;;;;;22.41;35.61;100845.91;6132114;23;20030;-81
2022/05/25 11:30:53;;;;;;;5.03;1.65;;;;;;;22.34;36.96;100835.34;6131928;23;20373;-80
2022/05/25 11:33:34;;;;;;;3.45;1.65;;;;;;;22.07;36.67;100826.94;6132640;23;20053;-82
2022/05/25 11:36:12;;;;;;;5.47;1.80;;;;;;;22.05;35.83;100833.53;6132903;23;20367;-81
2022/05/25 11:38:58;;;;;;;8.52;1.23;;;;;;;21.69;35.20;100823.75;6130141;23;20356;-80
2022/05/25 11:41:34;;;;;;;2.70;1.00;;;;;;;22.30;35.76;100825.38;6129335;23;20109;-81
2022/05/25 11:44:25;;;;;;;3.97;1.80;;;;;;;21.77;35.68;100832.22;6131047;23;20057;-79
2022/05/25 11:46:51;;;;;;;1.75;1.38;;;;;;;21.97;35.72;100837.31;6128866;23;20061;-79
2022/05/25 11:49:42;;;;;;;2.55;0.85;;;;;;;21.74;34.95;100829.22;6128763;23;20446;-80
2022/05/25 11:52:38;;;;;;;2.72;1.52;;;;;;;22.15;36.68;100817.81;6128885;23;20030;-80
2022/05/25 11:55:16;;;;;;;2.67;1.17;;;;;;;22.79;34.79;100829.53;6129856;23;20422;-82
2022/05/25 11:57:50;;;;;;;4.38;2.08;;;;;;;22.26;36.96;100821.53;6129346;23;20057;-80
2022/05/25 12:03:19;;;;;;;3.53;1.83;;;;;;;21.00;39.26;100803.63;6107087;23;20018;-84
2022/05/25 12:05:58;;;;;;;3.70;1.58;;;;;;;20.34;39.21;100814.78;6089160;23;20468;-83
2022/05/25 12:08:49;;;;;;;9.10;2.20;;;;;;;20.90;39.21;100803.31;6106533;23;20037;-83